Time;durP1;ratioP1;P1;durP2;ratioP2;P2;SDS_P1;SDS_P2;PMS_P1;PMS_P2;Temp;Humidity;BMP_temperature;BMP_pressure;BME280_temperature;BME280_humidity;BME280_pressure;Samples;Min_cycle;Max_cycle;Signal;HPM_P1;HPM_P2
2022/12/01 00:01:10;;;;;;;10.05;6.70;;;;;;;8.09;66.50;101015.41;5008089;28;20766;-76
2022/12/01 00:03:36;;;;;;;9.70;6.32;;;;;;;8.09;66.34;101017.28;5000642;28;20408;-76
2022/12/01 00:06:04;;;;;;;8.02;6.32;;;;;;;8.09;66.27;101015.41;5012341;28;20503;-76
2022/12/01 00:08:30;;;;;;;9.15;6.68;;;;;;;8.13;66.38;101024.75;5009299;28;20415;-76
2022/12/01 00:11:02;;;;;;;12.88;6.75;;;;;;;8.16;66.32;101021.63;5006277;28;20485;-76
2022/12/01 00:13:27;;;;;;;9.32;6.43;;;;;;;8.16;66.12;101016.22;5000107;28;20437;-76
2022/12/01 00:15:52;;;;;;;9.37;6.43;;;;;;;8.16;65.94;101020.78;5009193;28;20416;-76
2022/12/01 00:18:18;;;;;;;8.80;6.03;;;;;;;8.14;65.65;101014.75;5007878;28;20492;-76
2022/12/01 00:20:43;;;;;;;21.20;9.27;;;;;;;8.11;65.43;101010.63;5001373;28;20418;-76
2022/12/01 00:23:08;;;;;;;10.70;6.93;;;;;;;8.09;64.75;101010.03;5010547;28;20914;-76
2022/12/01 00:25:34;;;;;;;12.77;7.23;;;;;;;8.06;65.06;101009.63;5012785;28;20399;-76
2022/12/01 00:27:59;;;;;;;8.67;6.73;;;;;;;8.07;65.12;101013.97;5012745;28;20451;-76
2022/12/01 00:30:24;;;;;;;8.43;6.33;;;;;;;8.08;65.48;101018.31;5007844;28;20418;-76
2022/12/01 00:32:50;;;;;;;10.77;7.77;;;;;;;8.02;65.11;101009.22;5010273;28;20396;-76
2022/12/01 00:35:16;;;;;;;11.80;7.47;;;;;;;8.05;65.21;101010.66;5006224;28;20410;-75
2022/12/01 00:37:41;;;;;;;12.32;7.35;;;;;;;8.04;64.70;101009.81;5005830;28;20401;-76
2022/12/01 00:40:08;;;;;;;10.50;7.20;;;;;;;8.04;64.93;101015.22;5011788;28;20985;-76
2022/12/01 00:42:33;;;;;;;10.95;7.22;;;;;;;8.02;64.46;101014.63;5005368;28;20536;-76
2022/12/01 00:44:58;;;;;;;11.50;7.20;;;;;;;7.98;64.75;101015.25;5012248;28;20508;-76
2022/12/01 00:47:24;;;;;;;9.20;6.43;;;;;;;7.93;64.56;101024.00;5012077;28;20404;-76
2022/12/01 00:49:51;;;;;;;7.97;6.23;;;;;;;7.93;64.05;101021.31;5008525;28;20405;-75
2022/12/01 00:52:17;;;;;;;10.93;5.97;;;;;;;7.92;63.71;101022.34;5008026;28;20765;-76
2022/12/01 00:54:43;;;;;;;8.70;6.32;;;;;;;7.86;64.16;101031.28;5011088;28;20745;-76
2022/12/01 00:57:08;;;;;;;8.40;7.03;;;;;;;7.87;63.62;101026.72;5012177;28;20936;-76
2022/12/01 00:59:34;;;;;;;9.80;6.70;;;;;;;7.88;64.10;101031.06;5012040;28;20420;-76
2022/12/01 01:02:00;;;;;;;10.13;6.85;;;;;;;7.88;63.79;101033.75;5000600;28;20404;-76
2022/12/01 01:04:29;;;;;;;8.40;6.13;;;;;;;7.86;64.67;101038.56;5012147;28;20393;-76
2022/12/01 01:06:54;;;;;;;12.25;7.18;;;;;;;7.87;63.81;101037.53;5012240;28;20417;-76
2022/12/01 01:09:19;;;;;;;8.30;6.77;;;;;;;7.84;63.87;101038.75;5012176;28;20772;-76
2022/12/01 01:11:45;;;;;;;9.03;7.23;;;;;;;7.86;63.85;101044.78;5000531;28;20406;-76
2022/12/01 01:14:10;;;;;;;10.23;7.17;;;;;;;7.88;64.15;101044.56;5011987;28;20431;-77
2022/12/01 01:16:35;;;;;;;11.27;7.80;;;;;;;7.81;63.70;101045.41;5005747;28;20495;-76
2022/12/01 01:19:01;;;;;;;10.47;7.50;;;;;;;7.84;64.15;101039.59;5008048;28;20518;-76
2022/12/01 01:21:26;;;;;;;12.63;8.10;;;;;;;7.87;63.78;101049.13;5002881;28;20422;-76
2022/12/01 01:23:53;;;;;;;11.27;8.00;;;;;;;7.84;64.54;101046.84;5010647;28;20784;-76
2022/12/01 01:26:20;;;;;;;11.73;8.33;;;;;;;7.84;64.18;101044.97;5011946;28;20474;-77
2022/12/01 01:28:47;;;;;;;11.98;8.02;;;;;;;7.80;63.91;101051.84;5010395;28;20396;-76
2022/12/01 01:31:19;;;;;;;12.20;9.02;;;;;;;7.80;63.56;101049.13;5010003;28;20393;-76
2022/12/01 01:33:44;;;;;;;13.88;9.02;;;;;;;7.76;64.23;101055.19;5011697;28;20419;-77
2022/12/01 01:36:10;;;;;;;15.93;9.85;;;;;;;7.74;63.72;101052.69;5010556;28;20413;-77
2022/12/01 01:38:36;;;;;;;16.75;9.90;;;;;;;7.71;64.34;101050.41;5011635;28;20412;-76
2022/12/01 01:41:02;;;;;;;15.60;10.48;;;;;;;7.65;64.77;101040.47;5011676;28;20420;-76
2022/12/01 01:43:40;;;;;;;18.65;11.07;;;;;;;7.51;64.76;101043.44;5008150;28;20918;-76
2022/12/01 01:46:06;;;;;;;16.17;10.70;;;;;;;7.46;65.02;101035.97;5010081;28;20432;-76
2022/12/01 01:48:32;;;;;;;16.37;10.60;;;;;;;7.46;65.42;101043.22;5007937;28;20405;-76
2022/12/01 01:50:58;;;;;;;17.63;11.15;;;;;;;7.51;65.62;101029.97;5006651;28;20397;-76
2022/12/01 01:53:23;;;;;;;17.80;11.07;;;;;;;7.45;65.25;101034.31;4995015;28;20439;-77
2022/12/01 01:55:48;;;;;;;18.50;10.95;;;;;;;7.44;65.39;101031.84;5011617;28;20396;-76
2022/12/01 01:58:14;;;;;;;18.50;11.00;;;;;;;7.51;65.29;101030.75;5011573;28;20397;-76
2022/12/01 02:00:42;;;;;;;18.80;11.90;;;;;;;7.53;65.32;101030.56;5011540;28;20479;-76
2022/12/01 02:03:12;;;;;;;18.33;11.57;;;;;;;7.53;65.09;101036.78;5000146;28;20411;-75
2022/12/01 02:05:39;;;;;;;20.03;12.60;;;;;;;7.55;65.06;101041.94;5011585;28;20803;-76
2022/12/01 02:08:05;;;;;;;17.25;11.75;;;;;;;7.54;65.41;101034.91;5011488;28;20737;-76
2022/12/01 02:10:39;;;;;;;19.13;11.90;;;;;;;7.54;65.36;101040.31;5008459;28;20420;-75
2022/12/01 02:13:15;;;;;;;19.95;12.63;;;;;;;7.56;65.16;101041.75;5009260;28;20409;-75
2022/12/01 02:16:02;;;;;;;22.63;14.00;;;;;;;7.56;65.03;101036.38;5011254;28;20769;-76
2022/12/01 02:18:57;;;;;;;23.60;12.85;;;;;;;7.52;65.96;101036.97;5006896;28;20850;-75
2022/12/01 02:21:51;;;;;;;23.08;14.10;;;;;;;7.54;65.87;101035.72;5002647;28;20466;-75
2022/12/01 02:24:51;;;;;;;23.52;13.55;;;;;;;7.58;65.82;101028.88;5011521;28;20393;-75
2022/12/01 02:27:28;;;;;;;24.88;15.07;;;;;;;7.48;65.39;101031.19;5000259;28;20455;-74
2022/12/01 02:30:15;;;;;;;25.25;14.07;;;;;;;7.44;65.99;101029.97;5013115;28;20507;-76
2022/12/01 02:33:06;;;;;;;23.45;13.70;;;;;;;7.39;65.62;101023.53;5011806;28;20404;-75
2022/12/01 02:35:59;;;;;;;25.00;14.15;;;;;;;7.45;65.94;101022.69;5015010;28;20407;-75
2022/12/01 02:38:33;;;;;;;23.10;15.15;;;;;;;7.49;65.72;101032.00;5014778;28;20412;-75
2022/12/01 02:41:15;;;;;;;22.02;14.13;;;;;;;7.53;65.39;101027.88;5002396;28;20413;-75
2022/12/01 02:43:55;;;;;;;24.40;12.82;;;;;;;7.52;64.87;101015.41;5013075;28;20405;-76
2022/12/01 02:46:33;;;;;;;19.33;12.60;;;;;;;7.47;64.85;101017.94;5007156;28;20460;-76
2022/12/01 02:49:03;;;;;;;20.95;11.88;;;;;;;7.45;64.55;101020.81;5019114;28;20902;-76
2022/12/01 02:51:33;;;;;;;18.25;11.45;;;;;;;7.44;64.22;101021.88;4998679;28;20464;-75
2022/12/01 02:54:01;;;;;;;18.80;11.80;;;;;;;7.41;64.46;101021.47;5012340;28;20425;-75
2022/12/01 02:56:26;;;;;;;18.05;11.40;;;;;;;7.41;62.86;101033.06;5014565;28;20397;-76
2022/12/01 02:58:52;;;;;;;18.47;11.70;;;;;;;7.37;63.29;101022.91;5010318;28;20510;-76
2022/12/01 03:01:53;;;;;;;19.15;12.60;;;;;;;7.35;63.57;101033.06;5011509;28;20416;-76
2022/12/01 03:04:57;;;;;;;18.02;11.65;;;;;;;7.35;63.75;101020.41;5011050;28;20406;-76
2022/12/01 03:07:32;;;;;;;17.25;12.10;;;;;;;7.32;63.64;101029.75;5014416;28;20385;-76
2022/12/01 03:10:20;;;;;;;19.67;11.40;;;;;;;7.32;63.40;101018.16;5012392;28;20420;-76
2022/12/01 03:13:39;;;;;;;15.45;10.88;;;;;;;7.30;63.79;101018.38;5004760;28;20953;-76
2022/12/01 03:16:05;;;;;;;17.98;11.23;;;;;;;7.25;63.85;101023.53;5004866;28;20799;-76
2022/12/01 03:18:39;;;;;;;30.17;12.27;;;;;;;7.26;63.48;101025.22;5003239;28;20436;-75
2022/12/01 03:21:09;;;;;;;16.95;11.75;;;;;;;7.31;63.47;101016.47;5010564;28;20455;-75
2022/12/01 03:23:40;;;;;;;16.67;10.70;;;;;;;7.33;63.28;101014.41;5013983;28;20888;-75
2022/12/01 03:26:08;;;;;;;19.07;12.27;;;;;;;7.32;63.03;101016.28;5014063;28;20396;-75
2022/12/01 03:28:39;;;;;;;17.83;11.38;;;;;;;7.36;63.56;101023.94;5013832;28;20424;-76
2022/12/01 03:31:09;;;;;;;18.85;12.18;;;;;;;7.32;63.72;101010.88;5001355;28;20406;-75
2022/12/01 03:33:41;;;;;;;17.83;12.45;;;;;;;7.33;63.28;101011.72;5009857;28;20872;-75
2022/12/01 03:36:16;;;;;;;17.97;12.00;;;;;;;7.32;64.33;101012.75;5002638;28;20393;-75
2022/12/01 03:38:45;;;;;;;21.10;13.50;;;;;;;7.32;63.56;101021.69;5013721;28;20428;-75
2022/12/01 03:41:20;;;;;;;21.00;13.30;;;;;;;7.30;63.26;101023.75;5004774;28;20408;-76
2022/12/01 03:43:54;;;;;;;20.33;13.27;;;;;;;7.25;63.88;101018.16;5013647;28;20492;-75
2022/12/01 03:46:39;;;;;;;22.33;13.70;;;;;;;7.25;63.79;101017.31;5002112;28;20464;-75
2022/12/01 03:49:07;;;;;;;20.50;13.50;;;;;;;7.24;63.65;101018.38;5011805;28;20396;-76
2022/12/01 03:52:04;;;;;;;20.15;13.35;;;;;;;7.24;63.24;101016.50;5003353;28;20412;-75
2022/12/01 03:54:51;;;;;;;22.27;13.85;;;;;;;7.25;63.30;101020.03;5013440;28;20907;-75
2022/12/01 03:57:22;;;;;;;21.10;13.55;;;;;;;7.25;63.21;101031.63;5005249;28;20461;-75
2022/12/01 03:59:48;;;;;;;26.05;13.40;;;;;;;7.28;63.51;101020.44;5017878;28;20418;-75
2022/12/01 04:02:13;;;;;;;21.97;12.93;;;;;;;7.29;63.74;101030.19;5013932;28;20399;-75
2022/12/01 04:04:39;;;;;;;21.52;13.80;;;;;;;7.27;63.43;101031.44;5032190;28;20403;-75
2022/12/01 04:07:04;;;;;;;27.57;13.77;;;;;;;7.29;63.43;101038.28;5031336;28;20383;-75
2022/12/01 04:09:29;;;;;;;20.03;13.27;;;;;;;7.30;63.29;101037.25;5025847;28;20395;-76
2022/12/01 04:14:38;;;;;;;20.15;13.07;;;;;;;7.29;62.59;101038.28;5027040;28;20459;-75
2022/12/01 04:17:04;;;;;;;22.03;12.40;;;;;;;7.28;63.41;101035.78;5029867;28;20381;-75
2022/12/01 04:19:29;;;;;;;18.60;12.70;;;;;;;7.29;62.87;101032.88;5026925;28;20909;-75
2022/12/01 04:21:54;;;;;;;17.37;12.03;;;;;;;7.30;63.28;101029.16;5013570;28;20479;-75
2022/12/01 04:24:19;;;;;;;18.70;12.38;;;;;;;7.26;62.85;101035.16;5030232;28;20387;-75
2022/12/01 04:26:45;;;;;;;19.83;13.60;;;;;;;7.26;63.21;101035.16;5029211;28;20421;-75
2022/12/01 04:29:11;;;;;;;18.77;12.60;;;;;;;7.28;63.79;101028.50;5031872;28;20461;-75
2022/12/01 04:31:37;;;;;;;18.90;13.00;;;;;;;7.28;63.08;101035.78;4998565;28;20826;-75
2022/12/01 04:34:02;;;;;;;17.70;11.83;;;;;;;7.20;62.68;101038.69;5017534;28;20445;-75
2022/12/01 04:36:33;;;;;;;20.40;12.80;;;;;;;7.12;62.99;101044.28;5029506;28;20802;-75
2022/12/01 04:38:59;;;;;;;21.25;13.35;;;;;;;7.04;62.50;101042.66;5016714;28;20518;-75
2022/12/01 04:41:24;;;;;;;22.08;14.30;;;;;;;6.99;63.26;101044.28;5004335;28;20766;-75
2022/12/01 04:43:53;;;;;;;24.17;13.50;;;;;;;6.94;63.58;101039.53;4999115;28;20413;-75
2022/12/01 04:46:19;;;;;;;22.67;13.90;;;;;;;6.92;63.25;101040.75;5001372;28;20422;-75
2022/12/01 04:48:45;;;;;;;22.42;14.05;;;;;;;6.89;63.51;101035.78;4995173;28;20417;-76
2022/12/01 04:51:10;;;;;;;22.30;13.83;;;;;;;6.91;63.73;101039.97;5011315;28;20395;-75
2022/12/01 04:53:35;;;;;;;21.17;14.50;;;;;;;6.91;63.58;101039.97;5030231;28;20395;-75
2022/12/01 04:56:01;;;;;;;20.02;13.55;;;;;;;6.92;63.61;101038.91;5027728;28;20790;-75
2022/12/01 04:58:29;;;;;;;23.80;14.02;;;;;;;6.87;64.09;101044.09;5001901;28;20410;-75
2022/12/01 05:00:59;;;;;;;21.70;13.50;;;;;;;6.82;64.26;101032.28;5011041;28;20490;-75
2022/12/01 05:03:24;;;;;;;24.38;14.13;;;;;;;6.84;63.75;101040.97;5014018;28;20423;-76
2022/12/01 05:06:02;;;;;;;20.87;13.77;;;;;;;6.84;64.30;101047.22;5005649;28;20515;-75
2022/12/01 05:08:28;;;;;;;21.30;13.68;;;;;;;6.79;63.64;101041.59;4992864;28;20429;-75
2022/12/01 05:10:56;;;;;;;23.55;14.52;;;;;;;6.79;64.48;101053.19;4993941;28;20493;-75
2022/12/01 05:13:22;;;;;;;24.67;14.90;;;;;;;6.79;64.41;101044.28;5018221;28;20399;-75
2022/12/01 05:15:48;;;;;;;24.90;15.35;;;;;;;6.81;64.37;101041.41;5006736;28;20880;-75
2022/12/01 05:18:13;;;;;;;40.93;18.47;;;;;;;6.81;64.72;101047.63;5002595;28;20506;-75
2022/12/01 05:20:56;;;;;;;41.10;18.87;;;;;;;6.83;64.32;101050.09;5018000;28;20415;-76
2022/12/01 05:23:23;;;;;;;48.00;21.45;;;;;;;6.84;64.50;101052.59;4999465;28;20813;-75
2022/12/01 05:25:48;;;;;;;43.78;20.35;;;;;;;6.87;65.07;101049.47;5010351;28;20408;-75
2022/12/01 05:28:14;;;;;;;26.17;14.87;;;;;;;6.88;64.68;101056.53;5029602;28;20798;-75
2022/12/01 05:30:39;;;;;;;22.63;14.67;;;;;;;6.85;64.72;101062.31;5022826;28;20446;-75
2022/12/01 05:33:05;;;;;;;22.60;14.70;;;;;;;6.87;64.74;101056.72;5030711;28;20495;-75
2022/12/01 05:35:33;;;;;;;25.00;15.30;;;;;;;6.88;64.53;101053.00;5017600;28;20402;-75
2022/12/01 05:37:58;;;;;;;20.00;13.15;;;;;;;6.88;65.03;101053.84;5030750;28;20482;-76
2022/12/01 05:40:23;;;;;;;20.93;13.77;;;;;;;6.88;65.13;101056.53;5024205;28;20515;-75
2022/12/01 05:42:48;;;;;;;20.40;13.63;;;;;;;6.92;65.05;101060.47;5021108;28;20835;-75
2022/12/01 05:45:14;;;;;;;21.90;13.90;;;;;;;6.93;65.13;101056.75;5002022;28;20449;-75
2022/12/01 05:47:39;;;;;;;22.07;12.97;;;;;;;6.94;65.12;101057.56;5011201;28;20419;-75
2022/12/01 05:50:05;;;;;;;24.27;15.00;;;;;;;6.93;65.07;101056.75;5029059;28;20419;-75
2022/12/01 05:52:33;;;;;;;23.25;13.85;;;;;;;6.94;65.38;101060.25;5009270;28;20416;-75
2022/12/01 05:54:59;;;;;;;25.60;15.90;;;;;;;6.96;65.46;101055.50;5016417;28;20414;-76
2022/12/01 05:57:24;;;;;;;26.83;16.50;;;;;;;6.92;64.85;101060.47;5014747;28;20417;-76
2022/12/01 05:59:49;;;;;;;24.77;15.07;;;;;;;6.93;65.29;101061.28;5017972;28;20428;-75
2022/12/01 06:02:15;;;;;;;27.67;15.13;;;;;;;6.95;65.71;101070.00;5017072;28;20411;-75
2022/12/01 06:04:40;;;;;;;25.73;14.60;;;;;;;6.96;65.47;101067.09;5020403;28;20930;-75
2022/12/01 06:07:05;;;;;;;20.93;13.30;;;;;;;6.97;65.45;101062.53;5015646;28;20404;-76
2022/12/01 06:09:30;;;;;;;21.70;13.83;;;;;;;6.96;65.61;101068.97;5008488;28;20405;-76
2022/12/01 06:11:56;;;;;;;20.07;12.90;;;;;;;7.00;65.87;101070.22;5007571;28;20484;-76
2022/12/01 06:14:21;;;;;;;20.67;13.10;;;;;;;6.99;65.27;101060.47;5016009;28;20443;-76
2022/12/01 06:16:46;;;;;;;20.23;12.83;;;;;;;6.97;64.93;101068.78;5029876;28;20409;-76
2022/12/01 06:19:11;;;;;;;19.90;12.97;;;;;;;6.96;64.98;101064.41;5006914;28;20466;-75
2022/12/01 06:21:37;;;;;;;22.00;12.63;;;;;;;6.96;65.23;101069.78;5014633;28;20760;-76
2022/12/01 06:24:02;;;;;;;22.80;13.33;;;;;;;6.98;65.29;101064.22;5016489;28;20399;-76
2022/12/01 06:26:27;;;;;;;19.70;12.97;;;;;;;7.01;64.88;101071.88;5015633;28;20425;-76
2022/12/01 06:28:54;;;;;;;19.40;12.77;;;;;;;7.03;65.16;101067.94;5018794;28;20481;-76
2022/12/01 06:31:20;;;;;;;19.60;13.23;;;;;;;7.03;64.94;101070.63;5035429;28;20411;-76
2022/12/01 06:33:45;;;;;;;19.63;13.07;;;;;;;7.03;65.46;101078.72;5020375;28;20419;-74
2022/12/01 06:36:10;;;;;;;19.63;12.77;;;;;;;7.06;65.22;101072.91;5014014;28;20895;-75
2022/12/01 06:38:36;;;;;;;21.10;13.18;;;;;;;7.07;65.77;101074.56;4998988;28;20930;-74
2022/12/01 06:41:02;;;;;;;19.13;12.13;;;;;;;7.09;65.89;101074.34;5019102;28;20403;-75
2022/12/01 06:43:28;;;;;;;19.17;12.43;;;;;;;7.10;65.53;101076.84;5016630;28;20487;-74
2022/12/01 06:45:53;;;;;;;18.33;12.65;;;;;;;7.09;64.79;101075.19;5032178;28;20490;-74
2022/12/01 06:48:18;;;;;;;18.88;12.93;;;;;;;7.10;64.80;101090.34;5026162;28;20801;-74
2022/12/01 06:50:44;;;;;;;20.17;12.67;;;;;;;7.11;64.63;101083.88;5033895;28;20430;-74
2022/12/01 06:53:10;;;;;;;23.40;12.90;;;;;;;7.11;64.60;101085.78;5033655;28;20398;-75
2022/12/01 06:55:36;;;;;;;20.48;13.02;;;;;;;7.06;64.85;101090.94;5033882;28;20770;-74
2022/12/01 06:58:02;;;;;;;21.08;12.57;;;;;;;7.03;64.38;101088.66;5032483;28;20398;-74
2022/12/01 07:00:27;;;;;;;22.30;13.02;;;;;;;7.04;65.29;101084.94;5004238;28;20411;-74
2022/12/01 07:02:53;;;;;;;20.67;12.80;;;;;;;7.04;64.15;101088.47;5031156;28;20399;-74
2022/12/01 07:05:18;;;;;;;19.97;12.67;;;;;;;7.07;64.89;101087.22;5018100;28;20388;-74
2022/12/01 07:07:43;;;;;;;20.53;13.53;;;;;;;7.09;64.88;101087.81;5022691;28;20397;-74
2022/12/01 07:10:10;;;;;;;21.80;13.03;;;;;;;7.12;64.96;101092.81;5002796;28;20502;-74
2022/12/01 07:12:35;;;;;;;19.52;12.77;;;;;;;7.14;65.11;101096.13;5032457;28;20387;-75
2022/12/01 07:15:01;;;;;;;20.47;13.40;;;;;;;7.14;64.90;101096.97;5014721;28;20502;-74
2022/12/01 07:17:27;;;;;;;20.63;13.35;;;;;;;7.11;65.63;101091.97;4992694;28;20419;-74
2022/12/01 07:19:52;;;;;;;20.65;13.95;;;;;;;7.13;65.48;101095.31;5007044;28;20423;-74
2022/12/01 07:22:18;;;;;;;20.33;13.67;;;;;;;7.16;65.54;101094.88;5004865;28;20421;-74
2022/12/01 07:24:43;;;;;;;22.50;13.53;;;;;;;7.17;65.61;101095.72;5013580;28;20413;-74
2022/12/01 07:27:08;;;;;;;16.70;11.57;;;;;;;7.15;65.39;101095.09;5009532;28;20405;-74
2022/12/01 07:29:33;;;;;;;20.97;12.73;;;;;;;7.16;65.44;101094.06;5012092;28;20409;-75
2022/12/01 07:31:58;;;;;;;19.15;13.00;;;;;;;7.19;64.93;101090.94;5011709;28;20994;-74
2022/12/01 07:34:24;;;;;;;16.60;12.07;;;;;;;7.18;65.31;101097.38;5013229;28;20419;-75
2022/12/01 07:36:49;;;;;;;18.83;11.60;;;;;;;7.19;65.79;101099.88;5015751;28;20407;-74
2022/12/01 07:39:14;;;;;;;19.60;11.97;;;;;;;7.18;64.83;101106.28;5015291;28;20440;-75
2022/12/01 07:41:40;;;;;;;19.03;12.20;;;;;;;7.17;65.58;101114.59;5006678;28;20418;-74
2022/12/01 07:44:06;;;;;;;17.77;11.90;;;;;;;7.19;65.50;101112.50;5019659;28;20430;-74
2022/12/01 07:46:31;;;;;;;17.60;11.32;;;;;;;7.22;65.53;101112.94;5008135;28;20414;-74
2022/12/01 07:48:58;;;;;;;16.85;11.45;;;;;;;7.23;65.34;101116.47;5015206;28;20499;-75
2022/12/01 07:51:24;;;;;;;19.73;12.20;;;;;;;7.23;65.58;101111.91;5010288;28;20494;-74
2022/12/01 07:53:51;;;;;;;18.50;11.60;;;;;;;7.22;65.84;101114.78;5015496;28;20397;-75
2022/12/01 07:56:17;;;;;;;20.13;11.63;;;;;;;7.24;65.30;101120.81;5009019;28;20448;-74
2022/12/01 07:58:43;;;;;;;18.08;11.38;;;;;;;7.22;65.95;101121.00;5003306;28;20416;-74
2022/12/01 08:01:10;;;;;;;18.90;11.38;;;;;;;7.26;65.89;101116.03;5007472;28;20460;-74
2022/12/01 08:03:36;;;;;;;21.23;12.00;;;;;;;7.29;65.15;101124.53;5032670;28;21020;-74
2022/12/01 08:06:02;;;;;;;19.40;12.10;;;;;;;7.27;65.09;101126.63;5032484;28;20466;-75
2022/12/01 08:08:29;;;;;;;17.27;12.00;;;;;;;7.26;65.09;101116.03;5019715;28;20746;-74
2022/12/01 08:10:59;;;;;;;17.45;11.70;;;;;;;7.28;65.12;101122.88;5012116;28;20462;-74
2022/12/01 08:13:24;;;;;;;20.05;12.07;;;;;;;7.26;64.87;101127.66;5004628;28;20445;-74
2022/12/01 08:15:50;;;;;;;18.90;11.97;;;;;;;7.27;64.26;101129.31;5006750;28;20402;-74
2022/12/01 08:18:15;;;;;;;19.70;12.40;;;;;;;7.29;64.95;101129.94;4997292;28;20545;-75
2022/12/01 08:20:40;;;;;;;26.87;16.03;;;;;;;7.31;64.82;101125.16;5025575;28;20886;-74
2022/12/01 08:23:07;;;;;;;22.37;13.63;;;;;;;7.29;64.76;101135.34;5028451;28;20466;-74
2022/12/01 08:25:32;;;;;;;23.92;13.10;;;;;;;7.25;64.98;101133.25;5002331;28;20445;-75
2022/12/01 08:27:59;;;;;;;25.97;14.77;;;;;;;7.28;64.71;101143.63;5002294;28;20416;-75
2022/12/01 08:30:24;;;;;;;19.02;12.25;;;;;;;7.29;64.88;101142.59;4998406;28;20501;-74
2022/12/01 08:32:53;;;;;;;18.35;11.80;;;;;;;7.30;64.96;101136.16;5031284;28;20430;-74
2022/12/01 08:35:18;;;;;;;18.60;11.07;;;;;;;7.28;65.16;101133.66;5021908;28;20426;-75
2022/12/01 08:37:44;;;;;;;15.67;11.20;;;;;;;7.29;65.14;101134.50;5016042;28;20763;-74
2022/12/01 08:40:09;;;;;;;18.50;11.20;;;;;;;7.29;65.49;101140.72;5031836;28;20418;-74
2022/12/01 08:42:35;;;;;;;17.90;11.95;;;;;;;7.24;64.92;101145.88;5030743;28;20400;-75
2022/12/01 08:45:00;;;;;;;17.00;11.30;;;;;;;7.25;64.66;101150.25;5027179;28;20415;-74
2022/12/01 08:47:27;;;;;;;20.70;12.57;;;;;;;7.26;64.60;101153.78;5018992;28;20449;-74
2022/12/01 08:49:52;;;;;;;21.80;12.95;;;;;;;7.28;64.45;101151.69;5031587;28;20419;-74
2022/12/01 08:52:19;;;;;;;18.93;12.33;;;;;;;7.27;64.44;101152.75;5030669;28;20426;-74
2022/12/01 08:54:44;;;;;;;20.08;12.20;;;;;;;7.27;64.58;101150.91;5031437;28;20391;-74
2022/12/01 08:57:09;;;;;;;19.40;12.40;;;;;;;7.32;64.59;101152.94;5019934;28;20792;-74
2022/12/01 08:59:34;;;;;;;20.30;12.07;;;;;;;7.31;64.37;101152.13;5025037;28;20448;-74
2022/12/01 09:02:00;;;;;;;15.20;10.80;;;;;;;7.38;64.59;101159.38;4994122;28;20396;-74
2022/12/01 09:04:26;;;;;;;23.03;11.77;;;;;;;7.39;64.13;101164.56;5029773;28;20399;-75
2022/12/01 09:06:53;;;;;;;17.30;10.75;;;;;;;7.40;64.27;101152.75;5023545;28;20414;-74
2022/12/01 09:09:21;;;;;;;18.52;11.02;;;;;;;7.40;64.34;101155.47;5012186;28;20959;-75
2022/12/01 09:11:47;;;;;;;16.33;11.48;;;;;;;7.39;64.19;101161.88;5020479;28;20423;-74
2022/12/01 09:14:14;;;;;;;18.00;11.82;;;;;;;7.36;63.99;101158.75;5000902;28;20402;-74
2022/12/01 09:16:41;;;;;;;19.33;11.23;;;;;;;7.35;64.03;101160.63;5024859;28;20391;-74
2022/12/01 09:19:07;;;;;;;17.10;10.88;;;;;;;7.32;64.53;101163.75;5009312;28;20478;-74
2022/12/01 09:21:33;;;;;;;18.17;11.73;;;;;;;7.33;64.56;101151.94;5014267;28;20829;-75
2022/12/01 09:24:00;;;;;;;17.15;11.20;;;;;;;7.32;64.36;101158.34;5019185;28;20403;-74
2022/12/01 09:26:26;;;;;;;19.38;11.13;;;;;;;7.29;64.17;101165.00;5019203;28;20493;-75
2022/12/01 09:28:53;;;;;;;19.42;11.50;;;;;;;7.29;64.29;101161.47;5021255;28;20404;-74
2022/12/01 09:31:22;;;;;;;16.48;11.00;;;;;;;7.30;65.06;101158.56;5026075;28;20796;-74
2022/12/01 09:33:48;;;;;;;17.67;11.30;;;;;;;7.35;64.70;101159.78;5029558;28;20523;-74
2022/12/01 09:36:13;;;;;;;17.97;11.03;;;;;;;7.39;64.42;101159.19;5007140;28;20912;-74
2022/12/01 09:38:39;;;;;;;17.73;11.10;;;;;;;7.43;64.57;101155.03;5013158;28;20418;-74
2022/12/01 09:41:13;;;;;;;16.15;10.90;;;;;;;7.41;64.45;101153.59;5030812;28;20391;-74
2022/12/01 09:44:12;;;;;;;16.63;10.60;;;;;;;7.42;64.36;101163.31;5027469;28;20387;-75
2022/12/01 09:46:42;;;;;;;16.45;10.57;;;;;;;7.42;63.99;101166.03;5019513;28;20880;-75
2022/12/01 09:49:21;;;;;;;19.30;11.82;;;;;;;7.41;64.23;101156.28;5027152;28;20394;-75
2022/12/01 09:51:48;;;;;;;18.30;11.50;;;;;;;7.40;64.54;101158.16;5014621;28;21100;-74
2022/12/01 09:54:13;;;;;;;16.42;10.88;;;;;;;7.41;64.35;101157.09;5026956;28;20399;-74
2022/12/01 09:56:44;;;;;;;19.10;10.98;;;;;;;7.43;64.38;101156.91;5024081;28;20422;-74
2022/12/01 09:59:18;;;;;;;17.75;11.05;;;;;;;7.43;64.72;101152.34;5029583;28;20418;-75
2022/12/01 10:01:47;;;;;;;19.83;11.60;;;;;;;7.44;64.23;101162.09;5030726;28;20389;-74
2022/12/01 10:04:27;;;;;;;15.82;10.98;;;;;;;7.39;63.87;101153.78;5029308;28;20384;-74
2022/12/01 10:07:11;;;;;;;20.05;11.95;;;;;;;7.35;64.13;101147.16;5012865;28;20912;-74
2022/12/01 10:10:25;;;;;;;18.83;11.65;;;;;;;7.40;63.85;101143.84;5021229;28;20422;-74
2022/12/01 10:12:50;;;;;;;18.85;10.88;;;;;;;7.37;63.64;101138.88;4999928;28;20455;-74
2022/12/01 10:15:33;;;;;;;15.38;11.27;;;;;;;7.41;63.82;101140.91;5006149;28;20411;-74
2022/12/01 10:18:26;;;;;;;18.08;11.85;;;;;;;7.46;63.73;101127.66;5029118;28;20880;-74
2022/12/01 10:21:01;;;;;;;16.75;10.52;;;;;;;7.45;64.24;101136.78;5013699;28;20398;-74
2022/12/01 10:24:04;;;;;;;17.45;11.32;;;;;;;7.44;64.24;101137.84;5027662;28;20426;-74
2022/12/01 10:27:09;;;;;;;19.02;11.77;;;;;;;7.43;64.20;101132.63;5025816;28;20728;-74
2022/12/01 10:29:47;;;;;;;17.90;11.40;;;;;;;7.45;64.31;101126.00;5013088;28;20403;-74
2022/12/01 10:32:16;;;;;;;21.67;12.07;;;;;;;7.48;64.29;101122.88;5030347;28;20391;-75
2022/12/01 10:34:45;;;;;;;21.80;12.55;;;;;;;7.49;64.33;101111.06;5019579;28;20403;-74
2022/12/01 10:37:18;;;;;;;17.95;11.70;;;;;;;7.49;64.83;101113.75;5030318;28;20403;-74
2022/12/01 10:39:47;;;;;;;18.67;12.25;;;;;;;7.50;65.06;101103.81;5018834;28;20459;-74
2022/12/01 10:42:30;;;;;;;20.17;11.75;;;;;;;7.55;65.38;101098.59;5025742;28;20386;-74
2022/12/01 10:44:58;;;;;;;17.23;11.95;;;;;;;7.58;64.86;101104.41;4998456;28;20764;-74
2022/12/01 10:47:24;;;;;;;20.63;11.13;;;;;;;7.56;64.68;101103.78;5015964;28;20453;-74
2022/12/01 10:49:50;;;;;;;17.95;11.15;;;;;;;7.59;64.07;101099.84;5031241;28;20402;-74
2022/12/01 10:52:31;;;;;;;18.40;11.73;;;;;;;7.61;64.84;101097.75;5031167;28;20885;-74
2022/12/01 10:54:57;;;;;;;16.73;11.30;;;;;;;7.56;64.45;101100.25;5010654;28;20401;-74
2022/12/01 10:57:25;;;;;;;20.25;11.93;;;;;;;7.56;64.80;101108.34;5020399;28;20451;-74
2022/12/01 10:59:54;;;;;;;20.45;12.35;;;;;;;7.54;64.45;101096.97;5020060;28;20436;-74
2022/12/01 11:02:22;;;;;;;17.10;11.85;;;;;;;7.55;64.30;101091.34;5016796;28;20850;-74
2022/12/01 11:05:01;;;;;;;17.73;11.17;;;;;;;7.56;64.45;101093.00;5021246;28;20719;-74
2022/12/01 11:07:44;;;;;;;18.13;11.38;;;;;;;7.56;64.16;101090.31;5027831;28;20417;-74
2022/12/01 11:10:22;;;;;;;19.27;11.63;;;;;;;7.62;64.84;101086.75;5025992;28;20448;-74
2022/12/01 11:13:04;;;;;;;18.00;11.10;;;;;;;7.62;64.53;101085.94;5025321;28;21080;-74
2022/12/01 11:15:39;;;;;;;17.30;11.40;;;;;;;7.60;64.33;101082.63;5027900;28;20477;-74
2022/12/01 11:18:19;;;;;;;18.98;10.95;;;;;;;7.63;63.88;101076.81;5028615;28;20420;-73
2022/12/01 11:20:44;;;;;;;21.08;11.32;;;;;;;7.61;64.07;101071.59;5013902;28;20445;-73
2022/12/01 11:23:21;;;;;;;17.47;11.80;;;;;;;7.64;63.85;101073.88;5020208;28;20405;-73
2022/12/01 11:25:59;;;;;;;19.37;11.27;;;;;;;7.63;64.00;101076.81;5014500;28;20591;-73
2022/12/01 11:28:24;;;;;;;17.75;10.73;;;;;;;7.63;64.46;101076.81;5027956;28;20395;-73
2022/12/01 11:31:16;;;;;;;18.67;11.77;;;;;;;7.68;64.60;101072.44;5027378;28;20461;-73
2022/12/01 11:33:53;;;;;;;22.65;12.85;;;;;;;7.71;64.00;101072.00;5020635;28;20430;-73